sensor_id;sensor_type;location;lat;lon;timestamp;pressure;altitude;pressure_sealevel;temperature;humidity
20019;BME280;10170;42.502;26.526;2023-06-19T00:01:59;99410.09;;;22.83;nan
20019;BME280;10170;42.502;26.526;2023-06-19T00:04:26;99412.59;;;22.80;nan
20019;BME280;10170;42.502;26.526;2023-06-19T00:06:54;99411.63;;;22.89;nan
20019;BME280;10170;42.502;26.526;2023-06-19T00:09:21;99406.81;;;22.86;nan
20019;BME280;10170;42.502;26.526;2023-06-19T00:11:47;99414.03;;;22.91;nan
20019;BME280;10170;42.502;26.526;2023-06-19T00:14:14;99414.22;;;22.99;nan
20019;BME280;10170;42.502;26.526;2023-06-19T00:16:41;99428.66;;;22.95;nan
20019;BME280;10170;42.502;26.526;2023-06-19T00:19:08;99423.44;;;22.98;nan
20019;BME280;10170;42.502;26.526;2023-06-19T00:21:35;99417.94;;;22.85;nan
20019;BME280;10170;42.502;26.526;2023-06-19T00:24:04;99425.09;;;22.52;nan
20019;BME280;10170;42.502;26.526;2023-06-19T00:26:31;99412.47;;;22.43;nan
20019;BME280;10170;42.502;26.526;2023-06-19T00:28:58;99419.72;;;22.24;nan
20019;BME280;10170;42.502;26.526;2023-06-19T00:31:25;99409.78;;;22.14;nan
20019;BME280;10170;42.502;26.526;2023-06-19T00:33:54;99423.69;;;22.08;nan
20019;BME280;10170;42.502;26.526;2023-06-19T00:36:21;99415.94;;;21.96;nan
20019;BME280;10170;42.502;26.526;2023-06-19T00:38:49;99412.22;;;21.87;nan
20019;BME280;10170;42.502;26.526;2023-06-19T00:41:17;99420.88;;;21.89;nan
20019;BME280;10170;42.502;26.526;2023-06-19T00:43:44;99411.91;;;21.93;nan
20019;BME280;10170;42.502;26.526;2023-06-19T00:46:11;99430.53;;;22.00;nan
20019;BME280;10170;42.502;26.526;2023-06-19T00:48:39;99424.03;;;22.01;nan
20019;BME280;10170;42.502;26.526;2023-06-19T00:51:06;99432.69;;;22.03;nan
20019;BME280;10170;42.502;26.526;2023-06-19T00:53:33;99435.38;;;22.03;nan
20019;BME280;10170;42.502;26.526;2023-06-19T00:56:01;99422.44;;;21.95;nan
20019;BME280;10170;42.502;26.526;2023-06-19T00:58:30;99440.81;;;22.03;nan
20019;BME280;10170;42.502;26.526;2023-06-19T01:00:57;99430.47;;;22.05;nan
20019;BME280;10170;42.502;26.526;2023-06-19T01:03:33;99426.63;;;22.11;nan
20019;BME280;10170;42.502;26.526;2023-06-19T01:06:01;99427.69;;;22.15;nan
20019;BME280;10170;42.502;26.526;2023-06-19T01:08:44;99428.66;;;22.24;nan
20019;BME280;10170;42.502;26.526;2023-06-19T01:11:18;99432.59;;;22.37;nan
20019;BME280;10170;42.502;26.526;2023-06-19T01:13:58;99426.59;;;22.40;nan
20019;BME280;10170;42.502;26.526;2023-06-19T01:16:28;99426.53;;;22.45;nan
20019;BME280;10170;42.502;26.526;2023-06-19T01:18:56;99418.63;;;22.48;nan
20019;BME280;10170;42.502;26.526;2023-06-19T01:21:24;99428.88;;;22.56;nan
20019;BME280;10170;42.502;26.526;2023-06-19T01:23:51;99438.41;;;22.49;nan
20019;BME280;10170;42.502;26.526;2023-06-19T01:26:18;99422.97;;;22.49;nan
20019;BME280;10170;42.502;26.526;2023-06-19T01:28:45;99437.03;;;22.51;nan
20019;BME280;10170;42.502;26.526;2023-06-19T01:31:20;99429.47;;;22.48;nan
20019;BME280;10170;42.502;26.526;2023-06-19T01:33:49;99432.94;;;22.54;nan
20019;BME280;10170;42.502;26.526;2023-06-19T01:36:19;99436.53;;;22.49;nan
20019;BME280;10170;42.502;26.526;2023-06-19T01:38:48;99422.16;;;22.25;nan
20019;BME280;10170;42.502;26.526;2023-06-19T01:41:16;99410.97;;;22.08;nan
20019;BME280;10170;42.502;26.526;2023-06-19T01:43:45;99431.75;;;22.13;nan
20019;BME280;10170;42.502;26.526;2023-06-19T01:46:12;99437.69;;;22.15;nan
20019;BME280;10170;42.502;26.526;2023-06-19T01:48:39;99432.88;;;22.12;nan
20019;BME280;10170;42.502;26.526;2023-06-19T01:51:06;99422.88;;;22.07;nan
20019;BME280;10170;42.502;26.526;2023-06-19T01:53:33;99428.88;;;22.04;nan
20019;BME280;10170;42.502;26.526;2023-06-19T01:56:03;99434.88;;;21.96;nan
20019;BME280;10170;42.502;26.526;2023-06-19T01:58:30;99436.47;;;22.02;nan
20019;BME280;10170;42.502;26.526;2023-06-19T02:00:57;99434.66;;;21.92;nan
20019;BME280;10170;42.502;26.526;2023-06-19T02:03:24;99439.88;;;21.84;nan
20019;BME280;10170;42.502;26.526;2023-06-19T02:05:52;99442.50;;;21.94;nan
20019;BME280;10170;42.502;26.526;2023-06-19T02:08:18;99453.84;;;21.96;nan
20019;BME280;10170;42.502;26.526;2023-06-19T02:10:45;99443.88;;;21.91;nan
20019;BME280;10170;42.502;26.526;2023-06-19T02:13:12;99447.94;;;21.94;nan
20019;BME280;10170;42.502;26.526;2023-06-19T02:15:39;99454.91;;;22.00;nan
20019;BME280;10170;42.502;26.526;2023-06-19T02:18:06;99435.56;;;21.83;nan
20019;BME280;10170;42.502;26.526;2023-06-19T02:20:33;99446.41;;;21.83;nan
20019;BME280;10170;42.502;26.526;2023-06-19T02:23:01;99452.84;;;21.87;nan
20019;BME280;10170;42.502;26.526;2023-06-19T02:25:27;99443.41;;;21.84;nan
20019;BME280;10170;42.502;26.526;2023-06-19T02:27:54;99450.59;;;21.99;nan
20019;BME280;10170;42.502;26.526;2023-06-19T02:30:21;99455.28;;;21.88;nan
20019;BME280;10170;42.502;26.526;2023-06-19T02:32:50;99456.47;;;21.72;nan
20019;BME280;10170;42.502;26.526;2023-06-19T02:35:17;99450.34;;;21.57;nan
20019;BME280;10170;42.502;26.526;2023-06-19T02:37:43;99453.38;;;21.50;nan
20019;BME280;10170;42.502;26.526;2023-06-19T02:40:13;99456.38;;;21.49;nan
20019;BME280;10170;42.502;26.526;2023-06-19T02:42:41;99467.50;;;21.42;nan
20019;BME280;10170;42.502;26.526;2023-06-19T02:45:08;99470.84;;;21.68;nan
20019;BME280;10170;42.502;26.526;2023-06-19T02:47:34;99475.13;;;21.74;nan
20019;BME280;10170;42.502;26.526;2023-06-19T02:50:03;99478.13;;;21.72;nan
20019;BME280;10170;42.502;26.526;2023-06-19T02:52:30;99481.09;;;21.71;nan
20019;BME280;10170;42.502;26.526;2023-06-19T02:54:57;99449.56;;;21.51;nan
20019;BME280;10170;42.502;26.526;2023-06-19T02:57:24;99487.66;;;21.65;nan
20019;BME280;10170;42.502;26.526;2023-06-19T02:59:51;99488.22;;;21.57;nan
20019;BME280;10170;42.502;26.526;2023-06-19T03:02:17;99477.41;;;21.57;nan
20019;BME280;10170;42.502;26.526;2023-06-19T03:04:44;99487.47;;;21.51;nan
20019;BME280;10170;42.502;26.526;2023-06-19T03:07:11;99483.16;;;21.50;nan
20019;BME280;10170;42.502;26.526;2023-06-19T03:09:40;99475.31;;;21.49;nan
20019;BME280;10170;42.502;26.526;2023-06-19T03:12:08;99490.41;;;21.60;nan
20019;BME280;10170;42.502;26.526;2023-06-19T03:14:35;99492.22;;;21.69;nan
20019;BME280;10170;42.502;26.526;2023-06-19T03:17:02;99458.03;;;21.45;nan
20019;BME280;10170;42.502;26.526;2023-06-19T03:19:29;99499.78;;;21.67;nan
20019;BME280;10170;42.502;26.526;2023-06-19T03:21:56;99499.22;;;21.75;nan
20019;BME280;10170;42.502;26.526;2023-06-19T03:24:23;99496.34;;;21.57;nan
20019;BME280;10170;42.502;26.526;2023-06-19T03:26:50;99499.91;;;21.52;nan
20019;BME280;10170;42.502;26.526;2023-06-19T03:29:16;99504.19;;;21.58;nan
20019;BME280;10170;42.502;26.526;2023-06-19T03:31:43;99502.88;;;21.56;nan
20019;BME280;10170;42.502;26.526;2023-06-19T03:34:10;99491.41;;;21.69;nan
20019;BME280;10170;42.502;26.526;2023-06-19T03:36:37;99488.00;;;21.05;nan
20019;BME280;10170;42.502;26.526;2023-06-19T03:39:05;99505.28;;;21.09;nan
20019;BME280;10170;42.502;26.526;2023-06-19T03:41:32;99508.84;;;20.89;nan
20019;BME280;10170;42.502;26.526;2023-06-19T03:43:58;99502.41;;;20.80;nan
20019;BME280;10170;42.502;26.526;2023-06-19T03:46:26;99506.66;;;21.01;nan
20019;BME280;10170;42.502;26.526;2023-06-19T03:48:52;99499.28;;;21.22;nan
20019;BME280;10170;42.502;26.526;2023-06-19T03:51:20;99501.88;;;21.42;nan
20019;BME280;10170;42.502;26.526;2023-06-19T03:53:47;99505.50;;;21.66;nan
20019;BME280;10170;42.502;26.526;2023-06-19T03:56:14;99500.75;;;21.91;nan
20019;BME280;10170;42.502;26.526;2023-06-19T03:58:40;99495.69;;;22.14;nan
20019;BME280;10170;42.502;26.526;2023-06-19T04:01:07;99502.28;;;22.31;nan
20019;BME280;10170;42.502;26.526;2023-06-19T04:03:34;99499.88;;;22.53;nan
20019;BME280;10170;42.502;26.526;2023-06-19T04:06:01;99509.25;;;22.66;nan
20019;BME280;10170;42.502;26.526;2023-06-19T04:08:28;99510.75;;;22.77;nan
20019;BME280;10170;42.502;26.526;2023-06-19T04:10:55;99497.94;;;22.59;nan
20019;BME280;10170;42.502;26.526;2023-06-19T04:13:21;99505.41;;;22.72;nan
20019;BME280;10170;42.502;26.526;2023-06-19T04:15:48;99466.19;;;22.36;nan
20019;BME280;10170;42.502;26.526;2023-06-19T04:18:16;99505.28;;;22.30;nan
20019;BME280;10170;42.502;26.526;2023-06-19T04:20:43;99512.19;;;22.46;nan
20019;BME280;10170;42.502;26.526;2023-06-19T04:23:10;99518.66;;;22.16;nan
20019;BME280;10170;42.502;26.526;2023-06-19T04:25:37;99501.56;;;21.87;nan
20019;BME280;10170;42.502;26.526;2023-06-19T04:28:04;99521.06;;;21.89;nan
20019;BME280;10170;42.502;26.526;2023-06-19T04:30:30;99517.91;;;21.72;nan
20019;BME280;10170;42.502;26.526;2023-06-19T04:32:58;99519.78;;;21.81;nan
20019;BME280;10170;42.502;26.526;2023-06-19T04:35:25;99520.03;;;21.80;nan
20019;BME280;10170;42.502;26.526;2023-06-19T04:37:53;99522.19;;;21.83;nan
20019;BME280;10170;42.502;26.526;2023-06-19T04:40:20;99497.91;;;21.68;nan
20019;BME280;10170;42.502;26.526;2023-06-19T04:42:47;99510.38;;;21.69;nan
20019;BME280;10170;42.502;26.526;2023-06-19T04:45:14;99526.56;;;21.79;nan
20019;BME280;10170;42.502;26.526;2023-06-19T04:47:41;99530.47;;;21.96;nan
20019;BME280;10170;42.502;26.526;2023-06-19T04:50:18;99529.66;;;21.96;nan
20019;BME280;10170;42.502;26.526;2023-06-19T04:52:45;99509.34;;;21.60;nan
20019;BME280;10170;42.502;26.526;2023-06-19T04:55:12;99517.34;;;21.75;nan
20019;BME280;10170;42.502;26.526;2023-06-19T04:57:38;99522.19;;;21.83;nan
20019;BME280;10170;42.502;26.526;2023-06-19T05:00:06;99533.38;;;22.10;nan
20019;BME280;10170;42.502;26.526;2023-06-19T05:02:33;99549.47;;;22.25;nan
20019;BME280;10170;42.502;26.526;2023-06-19T05:05:00;99549.75;;;22.57;nan
20019;BME280;10170;42.502;26.526;2023-06-19T05:07:29;99544.94;;;22.78;nan
20019;BME280;10170;42.502;26.526;2023-06-19T05:10:00;99542.16;;;23.07;nan
20019;BME280;10170;42.502;26.526;2023-06-19T05:12:26;99550.47;;;23.39;nan
20019;BME280;10170;42.502;26.526;2023-06-19T05:14:53;99550.41;;;23.44;nan
20019;BME280;10170;42.502;26.526;2023-06-19T05:17:20;99518.56;;;23.26;nan
20019;BME280;10170;42.502;26.526;2023-06-19T05:19:48;99556.94;;;23.61;nan
20019;BME280;10170;42.502;26.526;2023-06-19T05:22:15;99563.91;;;23.67;nan
20019;BME280;10170;42.502;26.526;2023-06-19T05:24:41;99546.94;;;23.75;nan
20019;BME280;10170;42.502;26.526;2023-06-19T05:27:08;99556.38;;;23.64;nan
20019;BME280;10170;42.502;26.526;2023-06-19T05:29:35;99551.72;;;23.83;nan
20019;BME280;10170;42.502;26.526;2023-06-19T05:32:02;99541.81;;;23.92;nan
20019;BME280;10170;42.502;26.526;2023-06-19T05:34:29;99534.94;;;24.00;nan
20019;BME280;10170;42.502;26.526;2023-06-19T05:37:00;99551.03;;;24.29;nan
20019;BME280;10170;42.502;26.526;2023-06-19T05:39:30;99551.97;;;24.38;nan
20019;BME280;10170;42.502;26.526;2023-06-19T05:41:57;99549.16;;;24.43;nan
20019;BME280;10170;42.502;26.526;2023-06-19T05:44:23;99543.09;;;24.46;nan
20019;BME280;10170;42.502;26.526;2023-06-19T05:46:50;99553.81;;;24.56;nan
20019;BME280;10170;42.502;26.526;2023-06-19T05:49:17;99541.22;;;24.60;nan
20019;BME280;10170;42.502;26.526;2023-06-19T05:51:44;99537.16;;;24.89;nan
20019;BME280;10170;42.502;26.526;2023-06-19T05:54:11;99551.66;;;24.85;nan
20019;BME280;10170;42.502;26.526;2023-06-19T05:56:37;99546.78;;;24.68;nan
20019;BME280;10170;42.502;26.526;2023-06-19T05:59:04;99503.81;;;24.38;nan
20019;BME280;10170;42.502;26.526;2023-06-19T06:01:31;99554.06;;;24.86;nan
20019;BME280;10170;42.502;26.526;2023-06-19T06:03:58;99558.31;;;24.79;nan
20019;BME280;10170;42.502;26.526;2023-06-19T06:06:25;99537.88;;;24.49;nan
20019;BME280;10170;42.502;26.526;2023-06-19T06:08:52;99553.97;;;24.46;nan
20019;BME280;10170;42.502;26.526;2023-06-19T06:11:19;99558.47;;;24.23;nan
20019;BME280;10170;42.502;26.526;2023-06-19T06:13:46;99530.25;;;24.19;nan
20019;BME280;10170;42.502;26.526;2023-06-19T06:16:13;99548.06;;;24.57;nan
20019;BME280;10170;42.502;26.526;2023-06-19T06:18:41;99571.03;;;24.65;nan
20019;BME280;10170;42.502;26.526;2023-06-19T06:21:07;99567.41;;;24.56;nan
20019;BME280;10170;42.502;26.526;2023-06-19T06:23:35;99554.41;;;24.53;nan
20019;BME280;10170;42.502;26.526;2023-06-19T06:26:01;99563.88;;;24.55;nan
20019;BME280;10170;42.502;26.526;2023-06-19T06:28:29;99550.75;;;24.44;nan
20019;BME280;10170;42.502;26.526;2023-06-19T06:30:56;99557.75;;;24.31;nan
20019;BME280;10170;42.502;26.526;2023-06-19T06:33:23;99567.97;;;24.39;nan
20019;BME280;10170;42.502;26.526;2023-06-19T06:35:50;99567.25;;;24.79;nan
20019;BME280;10170;42.502;26.526;2023-06-19T06:38:20;99574.63;;;24.92;nan
20019;BME280;10170;42.502;26.526;2023-06-19T06:40:47;99585.53;;;25.20;nan
20019;BME280;10170;42.502;26.526;2023-06-19T06:43:14;99583.63;;;25.07;nan
20019;BME280;10170;42.502;26.526;2023-06-19T06:45:41;99586.84;;;25.36;nan
20019;BME280;10170;42.502;26.526;2023-06-19T06:48:09;99586.66;;;25.81;nan
20019;BME280;10170;42.502;26.526;2023-06-19T06:50:36;99583.47;;;25.79;nan
20019;BME280;10170;42.502;26.526;2023-06-19T06:53:03;99587.56;;;25.90;nan
20019;BME280;10170;42.502;26.526;2023-06-19T06:55:30;99591.09;;;25.91;nan
20019;BME280;10170;42.502;26.526;2023-06-19T06:57:56;99590.66;;;25.97;nan
20019;BME280;10170;42.502;26.526;2023-06-19T07:00:23;99593.31;;;25.89;nan
20019;BME280;10170;42.502;26.526;2023-06-19T07:02:50;99590.47;;;25.94;nan
20019;BME280;10170;42.502;26.526;2023-06-19T07:05:18;99592.09;;;25.95;nan
20019;BME280;10170;42.502;26.526;2023-06-19T07:07:45;99595.53;;;25.87;nan
20019;BME280;10170;42.502;26.526;2023-06-19T07:10:12;99591.59;;;25.93;nan
20019;BME280;10170;42.502;26.526;2023-06-19T07:12:48;99589.56;;;25.98;nan
20019;BME280;10170;42.502;26.526;2023-06-19T07:15:15;99601.84;;;26.32;nan
20019;BME280;10170;42.502;26.526;2023-06-19T07:17:45;99597.75;;;25.85;nan
20019;BME280;10170;42.502;26.526;2023-06-19T07:20:13;99604.50;;;26.01;nan
20019;BME280;10170;42.502;26.526;2023-06-19T07:22:41;99611.28;;;26.03;nan
20019;BME280;10170;42.502;26.526;2023-06-19T07:25:10;99601.97;;;25.55;nan
20019;BME280;10170;42.502;26.526;2023-06-19T07:27:38;99601.66;;;25.30;nan
20019;BME280;10170;42.502;26.526;2023-06-19T07:30:07;99595.63;;;25.46;nan
20019;BME280;10170;42.502;26.526;2023-06-19T07:32:34;99608.47;;;25.81;nan
20019;BME280;10170;42.502;26.526;2023-06-19T07:35:01;99607.94;;;26.29;nan
20019;BME280;10170;42.502;26.526;2023-06-19T07:37:27;99606.22;;;26.85;nan
20019;BME280;10170;42.502;26.526;2023-06-19T07:39:54;99603.97;;;27.18;nan
20019;BME280;10170;42.502;26.526;2023-06-19T07:42:22;99570.75;;;26.85;nan
20019;BME280;10170;42.502;26.526;2023-06-19T07:44:49;99605.84;;;26.70;nan
20019;BME280;10170;42.502;26.526;2023-06-19T07:47:16;99595.47;;;26.14;nan
20019;BME280;10170;42.502;26.526;2023-06-19T07:49:44;99614.72;;;26.31;nan
20019;BME280;10170;42.502;26.526;2023-06-19T07:52:12;99608.44;;;25.95;nan
20019;BME280;10170;42.502;26.526;2023-06-19T07:54:53;99620.75;;;25.92;nan
20019;BME280;10170;42.502;26.526;2023-06-19T07:57:21;99618.34;;;26.05;nan
20019;BME280;10170;42.502;26.526;2023-06-19T07:59:49;99613.66;;;26.19;nan
20019;BME280;10170;42.502;26.526;2023-06-19T08:02:17;99610.31;;;26.44;nan
20019;BME280;10170;42.502;26.526;2023-06-19T08:04:45;99613.03;;;26.96;nan
20019;BME280;10170;42.502;26.526;2023-06-19T08:07:12;99612.28;;;27.35;nan
20019;BME280;10170;42.502;26.526;2023-06-19T08:09:39;99608.31;;;27.67;nan
20019;BME280;10170;42.502;26.526;2023-06-19T08:12:07;99617.09;;;27.94;nan
20019;BME280;10170;42.502;26.526;2023-06-19T08:14:34;99616.59;;;28.35;nan
20019;BME280;10170;42.502;26.526;2023-06-19T08:17:01;99615.16;;;28.21;nan
20019;BME280;10170;42.502;26.526;2023-06-19T08:19:28;99620.44;;;28.26;nan
20019;BME280;10170;42.502;26.526;2023-06-19T08:21:55;99626.88;;;28.04;nan
20019;BME280;10170;42.502;26.526;2023-06-19T08:24:21;99625.28;;;28.03;nan
20019;BME280;10170;42.502;26.526;2023-06-19T08:26:48;99615.75;;;28.43;nan
20019;BME280;10170;42.502;26.526;2023-06-19T08:29:18;99622.03;;;28.69;nan
20019;BME280;10170;42.502;26.526;2023-06-19T08:31:45;99621.44;;;28.55;nan
20019;BME280;10170;42.502;26.526;2023-06-19T08:34:12;99619.44;;;28.81;nan
20019;BME280;10170;42.502;26.526;2023-06-19T08:36:39;99620.69;;;28.92;nan
20019;BME280;10170;42.502;26.526;2023-06-19T08:39:05;99623.31;;;29.27;nan
20019;BME280;10170;42.502;26.526;2023-06-19T08:41:37;99625.72;;;29.28;nan
20019;BME280;10170;42.502;26.526;2023-06-19T08:44:05;99638.28;;;28.49;nan
20019;BME280;10170;42.502;26.526;2023-06-19T08:46:32;99633.97;;;28.39;nan
20019;BME280;10170;42.502;26.526;2023-06-19T08:49:01;99631.19;;;28.82;nan
20019;BME280;10170;42.502;26.526;2023-06-19T08:51:28;99636.41;;;29.21;nan
20019;BME280;10170;42.502;26.526;2023-06-19T08:54:01;99650.38;;;29.28;nan
20019;BME280;10170;42.502;26.526;2023-06-19T08:56:28;99634.78;;;28.23;nan
20019;BME280;10170;42.502;26.526;2023-06-19T08:58:55;99634.22;;;27.78;nan
20019;BME280;10170;42.502;26.526;2023-06-19T09:01:22;99640.97;;;27.72;nan
20019;BME280;10170;42.502;26.526;2023-06-19T09:03:50;99645.72;;;28.57;nan
20019;BME280;10170;42.502;26.526;2023-06-19T09:06:19;99654.56;;;28.11;nan
20019;BME280;10170;42.502;26.526;2023-06-19T09:08:57;99648.41;;;27.32;nan
20019;BME280;10170;42.502;26.526;2023-06-19T09:11:24;99645.53;;;27.37;nan
20019;BME280;10170;42.502;26.526;2023-06-19T09:13:57;99645.75;;;26.66;nan
20019;BME280;10170;42.502;26.526;2023-06-19T09:16:36;99643.69;;;26.93;nan
20019;BME280;10170;42.502;26.526;2023-06-19T09:19:04;99633.53;;;27.16;nan
20019;BME280;10170;42.502;26.526;2023-06-19T09:21:31;99641.34;;;27.40;nan
20019;BME280;10170;42.502;26.526;2023-06-19T09:24:07;99644.03;;;27.70;nan
20019;BME280;10170;42.502;26.526;2023-06-19T09:26:34;99638.97;;;28.03;nan
20019;BME280;10170;42.502;26.526;2023-06-19T09:29:12;99637.34;;;28.19;nan
20019;BME280;10170;42.502;26.526;2023-06-19T09:31:41;99636.06;;;28.08;nan
20019;BME280;10170;42.502;26.526;2023-06-19T09:34:08;99642.50;;;28.03;nan
20019;BME280;10170;42.502;26.526;2023-06-19T09:36:36;99646.69;;;28.27;nan
20019;BME280;10170;42.502;26.526;2023-06-19T09:39:03;99642.16;;;28.22;nan
20019;BME280;10170;42.502;26.526;2023-06-19T09:41:30;99633.34;;;28.34;nan
20019;BME280;10170;42.502;26.526;2023-06-19T09:43:58;99611.72;;;28.49;nan
20019;BME280;10170;42.502;26.526;2023-06-19T09:46:29;99641.00;;;28.83;nan
20019;BME280;10170;42.502;26.526;2023-06-19T09:49:01;99632.53;;;28.33;nan
20019;BME280;10170;42.502;26.526;2023-06-19T09:51:35;99626.75;;;28.52;nan
20019;BME280;10170;42.502;26.526;2023-06-19T09:54:05;99633.31;;;28.59;nan
20019;BME280;10170;42.502;26.526;2023-06-19T09:56:33;99634.31;;;28.38;nan
20019;BME280;10170;42.502;26.526;2023-06-19T09:59:00;99621.66;;;28.96;nan
20019;BME280;10170;42.502;26.526;2023-06-19T10:01:29;99621.81;;;29.38;nan
20019;BME280;10170;42.502;26.526;2023-06-19T10:04:06;99630.09;;;29.21;nan
20019;BME280;10170;42.502;26.526;2023-06-19T10:06:42;99630.03;;;29.38;nan
20019;BME280;10170;42.502;26.526;2023-06-19T10:09:10;99623.34;;;29.56;nan
20019;BME280;10170;42.502;26.526;2023-06-19T10:11:50;99626.81;;;29.73;nan
20019;BME280;10170;42.502;26.526;2023-06-19T10:14:21;99621.91;;;29.99;nan
20019;BME280;10170;42.502;26.526;2023-06-19T10:16:48;99602.69;;;30.61;nan
20019;BME280;10170;42.502;26.526;2023-06-19T10:19:20;99605.31;;;30.90;nan
20019;BME280;10170;42.502;26.526;2023-06-19T10:21:50;99603.50;;;31.67;nan
20019;BME280;10170;42.502;26.526;2023-06-19T10:24:19;99596.19;;;31.35;nan
20019;BME280;10170;42.502;26.526;2023-06-19T10:27:00;99600.84;;;31.10;nan
20019;BME280;10170;42.502;26.526;2023-06-19T10:29:40;99586.31;;;31.10;nan
20019;BME280;10170;42.502;26.526;2023-06-19T10:32:08;99592.84;;;31.65;nan
20019;BME280;10170;42.502;26.526;2023-06-19T10:34:36;99582.31;;;31.19;nan
20019;BME280;10170;42.502;26.526;2023-06-19T10:37:03;99599.19;;;30.40;nan
20019;BME280;10170;42.502;26.526;2023-06-19T10:39:31;99590.16;;;30.40;nan
20019;BME280;10170;42.502;26.526;2023-06-19T10:41:59;99495.53;;;30.37;nan
20019;BME280;10170;42.502;26.526;2023-06-19T10:44:25;99582.91;;;31.37;nan
20019;BME280;10170;42.502;26.526;2023-06-19T10:46:53;99583.69;;;31.13;nan
20019;BME280;10170;42.502;26.526;2023-06-19T10:49:20;99576.56;;;31.72;nan
20019;BME280;10170;42.502;26.526;2023-06-19T10:51:48;99567.50;;;31.72;nan
20019;BME280;10170;42.502;26.526;2023-06-19T10:54:15;99556.13;;;31.85;nan
20019;BME280;10170;42.502;26.526;2023-06-19T10:56:42;99557.66;;;31.71;nan
20019;BME280;10170;42.502;26.526;2023-06-19T10:59:15;99542.47;;;31.01;nan
20019;BME280;10170;42.502;26.526;2023-06-19T11:01:46;99543.94;;;31.47;nan
20019;BME280;10170;42.502;26.526;2023-06-19T11:04:14;99546.84;;;31.90;nan
20019;BME280;10170;42.502;26.526;2023-06-19T11:06:44;99552.25;;;32.42;nan
20019;BME280;10170;42.502;26.526;2023-06-19T11:09:12;99553.84;;;32.15;nan
20019;BME280;10170;42.502;26.526;2023-06-19T11:11:46;99552.44;;;31.42;nan
20019;BME280;10170;42.502;26.526;2023-06-19T11:14:15;99540.03;;;30.99;nan
20019;BME280;10170;42.502;26.526;2023-06-19T11:16:45;99527.66;;;31.54;nan
20019;BME280;10170;42.502;26.526;2023-06-19T11:19:17;99538.13;;;31.36;nan
20019;BME280;10170;42.502;26.526;2023-06-19T11:21:47;99534.25;;;31.89;nan
20019;BME280;10170;42.502;26.526;2023-06-19T11:24:15;99534.44;;;32.24;nan
20019;BME280;10170;42.502;26.526;2023-06-19T11:26:44;99533.44;;;31.88;nan
20019;BME280;10170;42.502;26.526;2023-06-19T11:29:21;99527.78;;;31.97;nan
20019;BME280;10170;42.502;26.526;2023-06-19T11:31:49;99525.16;;;31.00;nan
20019;BME280;10170;42.502;26.526;2023-06-19T11:34:17;99506.97;;;30.84;nan
20019;BME280;10170;42.502;26.526;2023-06-19T11:36:47;99514.16;;;31.13;nan
20019;BME280;10170;42.502;26.526;2023-06-19T11:39:15;99516.34;;;31.19;nan
20019;BME280;10170;42.502;26.526;2023-06-19T11:41:45;99518.06;;;31.36;nan
20019;BME280;10170;42.502;26.526;2023-06-19T11:44:12;99514.13;;;30.20;nan
20019;BME280;10170;42.502;26.526;2023-06-19T11:46:39;99514.22;;;30.11;nan
20019;BME280;10170;42.502;26.526;2023-06-19T11:49:14;99516.22;;;30.02;nan
20019;BME280;10170;42.502;26.526;2023-06-19T11:51:41;99526.56;;;30.50;nan
20019;BME280;10170;42.502;26.526;2023-06-19T11:54:09;99512.34;;;31.04;nan
20019;BME280;10170;42.502;26.526;2023-06-19T11:56:37;99511.44;;;31.88;nan
20019;BME280;10170;42.502;26.526;2023-06-19T11:59:05;99505.13;;;31.76;nan
20019;BME280;10170;42.502;26.526;2023-06-19T12:01:33;99508.50;;;31.57;nan
20019;BME280;10170;42.502;26.526;2023-06-19T12:04:00;99504.53;;;31.94;nan
20019;BME280;10170;42.502;26.526;2023-06-19T12:06:28;99504.13;;;32.08;nan
20019;BME280;10170;42.502;26.526;2023-06-19T12:08:55;99497.91;;;32.11;nan
20019;BME280;10170;42.502;26.526;2023-06-19T12:11:22;99494.94;;;31.88;nan
20019;BME280;10170;42.502;26.526;2023-06-19T12:13:51;99500.81;;;31.63;nan
20019;BME280;10170;42.502;26.526;2023-06-19T12:16:20;99501.34;;;31.17;nan
20019;BME280;10170;42.502;26.526;2023-06-19T12:18:47;99501.59;;;31.12;nan
20019;BME280;10170;42.502;26.526;2023-06-19T12:21:14;99502.16;;;31.05;nan
20019;BME280;10170;42.502;26.526;2023-06-19T12:23:58;99494.88;;;30.40;nan
20019;BME280;10170;42.502;26.526;2023-06-19T12:26:25;99502.41;;;30.31;nan
20019;BME280;10170;42.502;26.526;2023-06-19T12:28:52;99490.69;;;30.22;nan
20019;BME280;10170;42.502;26.526;2023-06-19T12:31:20;99485.25;;;30.34;nan
20019;BME280;10170;42.502;26.526;2023-06-19T12:33:47;99500.72;;;30.06;nan
20019;BME280;10170;42.502;26.526;2023-06-19T12:36:15;99496.19;;;29.89;nan
20019;BME280;10170;42.502;26.526;2023-06-19T12:38:42;99484.75;;;29.87;nan
20019;BME280;10170;42.502;26.526;2023-06-19T12:41:09;99490.22;;;30.77;nan
20019;BME280;10170;42.502;26.526;2023-06-19T12:43:36;99487.50;;;30.89;nan
20019;BME280;10170;42.502;26.526;2023-06-19T12:46:03;99442.41;;;31.54;nan
20019;BME280;10170;42.502;26.526;2023-06-19T12:48:30;99465.47;;;31.89;nan
20019;BME280;10170;42.502;26.526;2023-06-19T12:50:57;99465.25;;;31.30;nan
20019;BME280;10170;42.502;26.526;2023-06-19T12:53:23;99472.00;;;30.36;nan
20019;BME280;10170;42.502;26.526;2023-06-19T12:55:53;99482.28;;;30.51;nan
20019;BME280;10170;42.502;26.526;2023-06-19T12:58:27;99475.31;;;29.97;nan
20019;BME280;10170;42.502;26.526;2023-06-19T13:00:54;99476.50;;;29.87;nan
20019;BME280;10170;42.502;26.526;2023-06-19T13:03:48;99479.97;;;29.96;nan
20019;BME280;10170;42.502;26.526;2023-06-19T13:06:15;99484.91;;;30.03;nan
20019;BME280;10170;42.502;26.526;2023-06-19T13:08:42;99451.81;;;29.67;nan
20019;BME280;10170;42.502;26.526;2023-06-19T13:11:11;99473.38;;;30.42;nan
20019;BME280;10170;42.502;26.526;2023-06-19T13:13:38;99480.19;;;30.81;nan
20019;BME280;10170;42.502;26.526;2023-06-19T13:16:05;99478.91;;;32.06;nan